Time;durP1;ratioP1;P1;durP2;ratioP2;P2;SDS_P1;SDS_P2;PMS_P1;PMS_P2;Temp;Humidity;BMP_temperature;BMP_pressure;BME280_temperature;BME280_humidity;BME280_pressure;Samples;Min_cycle;Max_cycle;Signal;HPM_P1;HPM_P2
2024/04/09 00:00:11;;;;;;;7.20;5.20;;;;;;;15.10;77.00;100555.05;87492;277;135876;-74
2024/04/09 00:02:13;;;;;;;6.20;4.80;;;;;;;15.09;77.32;100559.63;87445;271;22555;-73
2024/04/09 00:04:14;;;;;;;17.90;6.20;;;;;;;15.07;77.41;100556.59;87247;270;135995;-76
2024/04/09 00:06:15;;;;;;;9.90;5.20;;;;;;;15.05;77.71;100556.36;87717;275;23979;-72
2024/04/09 00:08:16;;;;;;;7.60;5.10;;;;;;;15.02;77.81;100556.73;87706;270;136826;-73
2024/04/09 00:10:19;;;;;;;5.80;5.00;;;;;;;14.99;77.97;100555.56;87748;271;23017;-72
2024/04/09 00:12:23;;;;;;;8.20;5.80;;;;;;;14.96;78.08;100557.76;87512;275;136449;-74
2024/04/09 00:14:27;;;;;;;6.70;4.50;;;;;;;14.93;78.57;100560.11;87597;263;24024;-75
2024/04/09 00:16:27;;;;;;;7.80;5.10;;;;;;;14.89;78.72;100556.29;88078;270;141616;-72
2024/04/09 00:18:31;;;;;;;14.90;5.70;;;;;;;14.86;78.93;100553.20;88590;271;22569;-72
2024/04/09 00:20:34;;;;;;;7.40;5.40;;;;;;;14.84;79.35;100552.46;88557;269;135924;-71
2024/04/09 00:22:35;;;;;;;8.80;5.60;;;;;;;14.81;79.61;100550.86;88178;263;22632;-78
2024/04/09 00:24:36;;;;;;;8.20;4.90;;;;;;;14.78;79.70;100551.08;87480;281;135877;-71
2024/04/09 00:26:36;;;;;;;8.60;4.70;;;;;;;14.74;79.89;100553.02;87617;277;22639;-72
2024/04/09 00:28:37;;;;;;;10.20;4.70;;;;;;;14.71;80.03;100551.84;87520;271;135645;-72
2024/04/09 00:30:39;;;;;;;6.40;5.20;;;;;;;14.69;80.25;100552.22;87366;270;25124;-78
2024/04/09 00:32:40;;;;;;;8.60;5.10;;;;;;;14.66;80.25;100556.11;87338;271;136174;-75
2024/04/09 00:34:42;;;;;;;6.90;5.30;;;;;;;14.64;80.60;100556.27;87355;277;25181;-75
2024/04/09 00:36:43;;;;;;;5.90;4.50;;;;;;;14.61;80.74;100555.00;87344;268;135735;-74
2024/04/09 00:38:49;;;;;;;8.60;5.00;;;;;;;14.58;80.96;100554.17;87559;274;24896;-73
2024/04/09 00:40:50;;;;;;;9.80;6.00;;;;;;;14.54;81.65;100553.83;87504;270;135935;-69
2024/04/09 00:42:53;;;;;;;8.20;5.40;;;;;;;14.47;81.90;100552.19;87268;277;22581;-71
2024/04/09 00:44:54;;;;;;;7.70;5.80;;;;;;;14.43;82.11;100554.25;87113;279;136055;-76
2024/04/09 00:46:56;;;;;;;8.00;5.00;;;;;;;14.39;82.26;100551.41;87252;265;22568;-71
2024/04/09 00:48:57;;;;;;;7.10;4.80;;;;;;;14.35;82.53;100552.77;87271;272;136685;-71
2024/04/09 00:50:58;;;;;;;8.90;4.70;;;;;;;14.32;82.64;100560.59;87312;270;24225;-72
2024/04/09 00:53:00;;;;;;;8.70;4.60;;;;;;;14.28;82.89;100558.22;86981;278;136294;-72
2024/04/09 00:55:02;;;;;;;8.40;4.60;;;;;;;14.26;83.09;100566.23;87286;269;23752;-73
2024/04/09 00:57:04;;;;;;;8.70;4.90;;;;;;;14.22;83.48;100563.63;87198;272;136121;-71
2024/04/09 00:59:05;;;;;;;9.90;5.50;;;;;;;14.18;83.75;100564.99;87313;269;22639;-73
2024/04/09 01:01:05;;;;;;;5.30;4.30;;;;;;;14.17;84.30;100567.39;87495;269;137870;-73
2024/04/09 01:03:08;;;;;;;10.20;4.80;;;;;;;14.14;84.74;100568.83;87578;266;25294;-72
2024/04/09 01:05:10;;;;;;;7.00;5.10;;;;;;;14.10;85.06;100569.30;87381;274;137890;-74
2024/04/09 01:07:11;;;;;;;5.50;4.20;;;;;;;14.08;85.56;100572.00;87259;269;22575;-71
2024/04/09 01:09:13;;;;;;;7.30;5.00;;;;;;;14.04;85.73;100571.92;87113;277;137928;-70
2024/04/09 01:11:15;;;;;;;7.70;4.50;;;;;;;14.01;85.76;100572.86;87272;266;22560;-71
2024/04/09 01:13:16;;;;;;;7.40;4.10;;;;;;;13.97;86.10;100566.23;87207;266;137352;-73
2024/04/09 01:15:17;;;;;;;6.90;5.60;;;;;;;13.91;86.28;100566.67;87310;269;24061;-73
2024/04/09 01:17:21;;;;;;;8.00;5.10;;;;;;;13.87;86.36;100567.95;87050;264;136070;-72
2024/04/09 01:19:21;;;;;;;7.30;5.10;;;;;;;13.83;86.29;100565.21;87241;278;23998;-73
2024/04/09 01:21:22;;;;;;;5.60;4.70;;;;;;;13.82;86.53;100565.77;87092;271;136243;-71
2024/04/09 01:23:23;;;;;;;8.00;4.60;;;;;;;13.80;86.56;100566.58;87254;277;22552;-71
2024/04/09 01:25:23;;;;;;;5.10;4.10;;;;;;;13.77;86.89;100565.13;87175;273;136029;-72
2024/04/09 01:27:25;;;;;;;6.60;5.10;;;;;;;13.75;87.03;100566.48;87294;267;24036;-75
2024/04/09 01:29:26;;;;;;;8.50;4.90;;;;;;;13.72;87.06;100565.25;87506;271;137194;-72
2024/04/09 01:31:29;;;;;;;5.10;4.50;;;;;;;13.69;87.14;100566.39;87449;275;24004;-74
2024/04/09 01:33:30;;;;;;;11.00;5.30;;;;;;;13.67;87.39;100571.48;87274;268;135502;-74
2024/04/09 01:35:31;;;;;;;7.10;4.80;;;;;;;13.66;87.53;100568.25;87505;275;22579;-75
2024/04/09 01:37:38;;;;;;;10.80;5.70;;;;;;;13.66;87.66;100570.27;87499;270;137732;-75
2024/04/09 01:39:40;;;;;;;5.00;3.80;;;;;;;13.65;87.80;100571.98;87223;271;23713;-74
2024/04/09 01:41:41;;;;;;;8.20;5.00;;;;;;;13.62;87.95;100568.15;87448;270;136629;-75
2024/04/09 01:43:42;;;;;;;7.40;5.10;;;;;;;13.62;88.15;100568.98;87532;269;23120;-75
2024/04/09 01:45:42;;;;;;;5.90;5.10;;;;;;;13.61;88.24;100569.30;87480;270;136915;-72
2024/04/09 01:47:44;;;;;;;9.00;5.10;;;;;;;13.60;88.51;100569.22;87347;270;22546;-72
2024/04/09 01:49:46;;;;;;;7.10;6.10;;;;;;;13.59;88.63;100573.50;87187;270;136601;-74
2024/04/09 01:51:47;;;;;;;7.30;4.60;;;;;;;13.56;88.65;100575.60;87272;274;24011;-72
2024/04/09 01:53:48;;;;;;;5.40;4.50;;;;;;;13.54;88.64;100575.88;87204;273;136151;-72
2024/04/09 01:55:58;;;;;;;10.30;5.00;;;;;;;13.52;88.71;100573.11;87309;278;22571;-71
2024/04/09 01:57:59;;;;;;;5.50;4.90;;;;;;;13.49;88.95;100574.26;87172;280;135921;-72
2024/04/09 02:00:11;;;;;;;7.00;4.60;;;;;;;13.47;89.20;100571.83;87232;266;22601;-71
2024/04/09 02:02:13;;;;;;;7.10;4.40;;;;;;;13.43;89.37;100571.61;87379;265;22552;-71
2024/04/09 02:04:13;;;;;;;8.50;5.40;;;;;;;13.40;89.31;100575.68;87240;272;136824;-71
2024/04/09 02:06:20;;;;;;;6.80;5.20;;;;;;;13.38;89.47;100576.04;87323;270;22555;-73
2024/04/09 02:08:21;;;;;;;5.90;4.90;;;;;;;13.35;89.46;100575.33;87222;270;136289;-71
2024/04/09 02:10:21;;;;;;;10.40;5.20;;;;;;;13.32;89.76;100573.34;87244;275;22566;-72
2024/04/09 02:12:22;;;;;;;6.80;4.60;;;;;;;13.31;89.97;100571.59;87187;268;137037;-71
2024/04/09 02:14:23;;;;;;;6.60;4.40;;;;;;;13.29;90.14;100570.49;87271;265;23757;-72
2024/04/09 02:16:23;;;;;;;6.60;5.10;;;;;;;13.28;89.93;100573.96;87134;269;136547;-72
2024/04/09 02:18:24;;;;;;;7.50;4.70;;;;;;;13.25;90.29;100572.95;87183;270;23273;-73
2024/04/09 02:20:26;;;;;;;6.20;4.70;;;;;;;13.24;90.35;100574.99;87093;279;137120;-75
2024/04/09 02:22:28;;;;;;;10.70;5.00;;;;;;;13.22;90.82;100578.91;87532;274;25252;-74
2024/04/09 02:24:29;;;;;;;10.70;5.50;;;;;;;13.21;91.25;100579.33;87499;275;136916;-74
2024/04/09 02:26:31;;;;;;;4.80;4.30;;;;;;;13.18;91.26;100574.61;87340;278;22574;-72
2024/04/09 02:28:32;;;;;;;6.00;5.20;;;;;;;13.17;91.46;100577.86;87258;274;138366;-72
2024/04/09 02:30:33;;;;;;;8.60;5.10;;;;;;;13.15;91.68;100575.05;87333;271;22564;-72
2024/04/09 02:32:34;;;;;;;7.40;5.00;;;;;;;13.12;91.84;100577.23;87436;267;136732;-74
2024/04/09 02:34:35;;;;;;;5.10;4.60;;;;;;;13.08;92.21;100578.27;87278;270;22562;-74
2024/04/09 02:36:36;;;;;;;5.70;5.00;;;;;;;13.03;92.33;100574.95;87163;276;135946;-73
2024/04/09 02:38:37;;;;;;;5.60;4.70;;;;;;;12.99;92.70;100572.59;87326;279;25198;-74
2024/04/09 02:40:38;;;;;;;7.90;5.00;;;;;;;12.95;93.06;100575.78;87147;278;136481;-74
2024/04/09 02:42:39;;;;;;;7.40;5.60;;;;;;;12.92;93.46;100577.29;87171;270;22562;-73
2024/04/09 02:44:39;;;;;;;5.60;4.90;;;;;;;12.90;94.12;100580.27;87024;270;137470;-71
2024/04/09 02:46:40;;;;;;;6.00;4.20;;;;;;;12.88;94.62;100578.88;87244;273;24242;-74
2024/04/09 02:48:41;;;;;;;7.80;5.40;;;;;;;12.87;95.25;100585.21;87167;277;136905;-74
2024/04/09 02:50:42;;;;;;;6.30;5.00;;;;;;;12.87;95.45;100585.30;87303;266;22551;-76
2024/04/09 02:52:43;;;;;;;11.80;5.30;;;;;;;12.86;95.85;100588.22;87305;270;137080;-74
2024/04/09 02:54:43;;;;;;;7.70;5.60;;;;;;;12.85;96.07;100592.23;87397;270;22784;-76
2024/04/09 02:56:44;;;;;;;8.90;5.50;;;;;;;12.84;96.00;100595.55;87074;273;136691;-78
2024/04/09 02:58:45;;;;;;;8.80;5.30;;;;;;;12.84;96.27;100595.76;87449;270;23969;-74
2024/04/09 03:00:45;;;;;;;6.30;5.10;;;;;;;12.84;96.14;100594.49;87289;267;136897;-77
2024/04/09 03:02:51;;;;;;;9.20;5.50;;;;;;;12.85;96.06;100600.21;87326;279;24349;-74
2024/04/09 03:04:51;;;;;;;8.30;5.00;;;;;;;12.85;96.06;100601.66;87183;270;137099;-74
2024/04/09 03:06:52;;;;;;;7.50;5.30;;;;;;;12.85;96.11;100605.44;87106;280;25252;-77
2024/04/09 03:08:54;;;;;;;11.40;5.60;;;;;;;12.86;96.03;100604.87;87221;271;136398;-76
2024/04/09 03:10:55;;;;;;;6.50;5.70;;;;;;;12.86;95.94;100609.08;87180;270;25198;-72
2024/04/09 03:12:56;;;;;;;7.10;5.70;;;;;;;12.86;96.05;100607.67;87132;277;137726;-74
2024/04/09 03:14:57;;;;;;;7.30;5.50;;;;;;;12.86;95.86;100607.71;87326;266;22651;-77
2024/04/09 03:16:58;;;;;;;7.70;5.20;;;;;;;12.84;95.85;100609.27;87246;275;137246;-73
2024/04/09 03:18:59;;;;;;;7.40;5.20;;;;;;;12.83;95.77;100611.20;87153;279;25349;-76
2024/04/09 03:20:59;;;;;;;7.40;5.40;;;;;;;12.82;95.98;100612.67;87291;278;136069;-75
2024/04/09 03:23:00;;;;;;;8.80;5.10;;;;;;;12.81;96.34;100616.41;87281;270;23003;-72
2024/04/09 03:25:01;;;;;;;9.00;5.30;;;;;;;12.79;96.74;100621.78;87139;268;137885;-73
2024/04/09 03:27:02;;;;;;;7.80;5.40;;;;;;;12.77;97.08;100626.30;87335;270;22555;-73
2024/04/09 03:29:03;;;;;;;11.50;5.60;;;;;;;12.74;97.18;100623.80;87184;268;137026;-73
2024/04/09 03:31:04;;;;;;;8.60;5.80;;;;;;;12.72;97.81;100624.42;87248;268;24046;-72
2024/04/09 03:33:04;;;;;;;7.80;5.20;;;;;;;12.71;98.16;100627.11;87148;278;136470;-73
2024/04/09 03:35:05;;;;;;;10.60;6.30;;;;;;;12.72;98.70;100625.36;87456;270;22565;-76
2024/04/09 03:37:06;;;;;;;7.30;5.60;;;;;;;12.74;98.70;100623.64;87136;274;137223;-72
2024/04/09 03:39:07;;;;;;;10.20;5.50;;;;;;;12.79;98.60;100622.07;87284;275;22664;-73
2024/04/09 03:41:09;;;;;;;8.00;6.20;;;;;;;12.85;98.85;100618.98;87220;271;136638;-73
2024/04/09 03:43:09;;;;;;;6.10;5.40;;;;;;;12.92;98.85;100622.00;87283;273;24167;-72
2024/04/09 03:45:11;;;;;;;10.10;5.20;;;;;;;13.01;98.77;100623.16;87243;270;138102;-76
2024/04/09 03:47:12;;;;;;;8.70;5.00;;;;;;;13.13;98.45;100621.58;87306;279;22589;-76
2024/04/09 03:49:13;;;;;;;7.20;5.90;;;;;;;13.29;97.95;100618.81;87202;270;136128;-73
2024/04/09 03:51:15;;;;;;;7.90;5.30;;;;;;;13.48;97.58;100621.72;87379;266;22565;-79
2024/04/09 03:53:16;;;;;;;6.60;5.40;;;;;;;13.72;96.89;100626.16;87481;273;135833;-78
2024/04/09 03:55:16;;;;;;;6.10;5.10;;;;;;;14.04;96.32;100626.10;87327;270;22550;-74
2024/04/09 03:57:17;;;;;;;14.80;7.90;;;;;;;14.47;95.31;100628.70;87137;279;136694;-72
2024/04/09 03:59:18;;;;;;;9.30;6.90;;;;;;;15.02;92.47;100632.11;87208;270;22564;-72
2024/04/09 04:01:18;;;;;;;8.70;6.50;;;;;;;15.61;89.50;100633.37;87037;269;136052;-71
2024/04/09 04:03:19;;;;;;;9.10;6.10;;;;;;;16.21;86.09;100628.77;87205;272;22574;-72
2024/04/09 04:05:19;;;;;;;6.90;5.40;;;;;;;16.77;82.50;100628.23;87192;270;136733;-74
2024/04/09 04:07:20;;;;;;;6.70;5.40;;;;;;;17.32;78.80;100631.24;87314;277;22635;-74
2024/04/09 04:09:24;;;;;;;7.60;5.40;;;;;;;17.86;74.47;100629.86;87240;269;135520;-75
2024/04/09 04:11:24;;;;;;;8.70;5.30;;;;;;;18.33;70.89;100632.69;87542;273;22969;-74
2024/04/09 04:13:27;;;;;;;7.70;5.00;;;;;;;18.76;68.35;100637.70;87302;273;136015;-72
2024/04/09 04:15:28;;;;;;;8.30;5.70;;;;;;;19.17;65.24;100636.74;87480;275;22703;-73
2024/04/09 04:17:29;;;;;;;5.10;4.60;;;;;;;19.62;63.30;100639.16;87252;270;136669;-73
2024/04/09 04:19:29;;;;;;;12.10;5.50;;;;;;;20.09;60.55;100637.43;87321;266;23944;-74
2024/04/09 04:21:30;;;;;;;9.70;5.40;;;;;;;20.47;58.59;100636.88;87143;274;136521;-73
2024/04/09 04:23:31;;;;;;;6.70;4.70;;;;;;;20.89;56.74;100635.25;87307;266;24046;-73
2024/04/09 04:25:32;;;;;;;7.30;4.50;;;;;;;21.31;54.81;100634.17;87299;271;136349;-81
2024/04/09 04:27:32;;;;;;;6.40;4.50;;;;;;;21.70;53.50;100634.21;87444;280;22588;-76
2024/04/09 04:29:33;;;;;;;5.30;4.80;;;;;;;22.10;52.51;100632.31;87189;278;137124;-77
2024/04/09 04:31:34;;;;;;;6.10;4.60;;;;;;;22.44;50.80;100636.37;87265;269;22616;-77
2024/04/09 04:33:38;;;;;;;10.20;4.40;;;;;;;22.71;49.64;100630.95;87200;279;137471;-77
2024/04/09 04:35:39;;;;;;;6.80;4.80;;;;;;;23.00;48.72;100631.73;87367;270;25223;-75
2024/04/09 04:37:40;;;;;;;6.70;4.60;;;;;;;23.35;47.19;100629.08;87110;275;135900;-74
2024/04/09 04:39:40;;;;;;;6.50;4.90;;;;;;;23.69;45.97;100632.28;87103;270;22578;-76
2024/04/09 04:41:41;;;;;;;9.60;4.90;;;;;;;24.00;45.26;100630.78;87103;274;135805;-76
2024/04/09 04:43:42;;;;;;;6.00;4.90;;;;;;;24.31;44.10;100631.83;87210;271;25090;-77
2024/04/09 04:45:44;;;;;;;13.30;5.20;;;;;;;24.55;44.12;100628.33;87335;271;136888;-77
2024/04/09 04:47:45;;;;;;;5.30;4.40;;;;;;;24.78;43.39;100628.41;87548;270;22567;-76
2024/04/09 04:49:45;;;;;;;4.90;3.90;;;;;;;25.00;42.87;100630.64;87463;266;137121;-77
2024/04/09 04:51:46;;;;;;;8.00;4.40;;;;;;;25.19;41.76;100630.58;87505;274;22571;-76
2024/04/09 04:53:47;;;;;;;6.90;4.20;;;;;;;25.16;41.55;100627.09;87404;266;137154;-76
2024/04/09 04:55:51;;;;;;;5.70;4.80;;;;;;;25.12;41.27;100629.95;87575;270;23295;-75
2024/04/09 04:57:52;;;;;;;8.00;4.20;;;;;;;25.19;40.61;100629.48;87437;278;136265;-77
2024/04/09 04:59:52;;;;;;;10.30;5.00;;;;;;;25.30;40.21;100632.36;87688;270;22528;-75
2024/04/09 05:01:53;;;;;;;10.40;3.80;;;;;;;25.47;39.80;100632.88;87523;279;135890;-75
2024/04/09 05:03:54;;;;;;;11.10;7.10;;;;;;;25.66;39.72;100634.58;87118;272;22577;-78
2024/04/09 05:05:54;;;;;;;4.90;4.00;;;;;;;25.82;38.62;100637.42;87520;270;136113;-79
2024/04/09 05:07:58;;;;;;;5.70;3.90;;;;;;;25.83;37.84;100635.27;87438;272;25057;-77
2024/04/09 05:09:59;;;;;;;4.10;3.70;;;;;;;25.85;38.02;100636.79;87520;270;135763;-76
2024/04/09 05:12:01;;;;;;;10.10;4.70;;;;;;;25.99;37.86;100639.31;87552;274;22678;-78
2024/04/09 05:14:02;;;;;;;12.30;4.40;;;;;;;26.13;37.12;100637.66;87549;267;136581;-77
2024/04/09 05:16:03;;;;;;;7.90;3.60;;;;;;;26.22;36.77;100634.04;87546;271;136930;-75
2024/04/09 05:18:04;;;;;;;7.20;4.10;;;;;;;26.26;36.46;100633.13;87589;275;22703;-74
2024/04/09 05:20:14;;;;;;;6.50;4.00;;;;;;;26.26;36.54;100635.10;87446;270;135982;-73
2024/04/09 05:22:17;;;;;;;4.10;3.10;;;;;;;26.32;36.62;100634.07;87477;267;22632;-75
2024/04/09 05:24:18;;;;;;;5.90;3.90;;;;;;;26.46;36.49;100636.79;87353;280;136383;-77
2024/04/09 05:26:18;;;;;;;8.30;3.80;;;;;;;26.50;36.21;100640.55;87548;270;25339;-76
2024/04/09 05:28:19;;;;;;;7.80;4.20;;;;;;;26.53;35.74;100641.09;87413;270;136368;-76
2024/04/09 05:30:21;;;;;;;5.50;4.20;;;;;;;26.52;35.80;100643.34;87248;278;22563;-77
2024/04/09 05:32:22;;;;;;;4.90;3.50;;;;;;;26.51;35.50;100642.69;87436;268;137296;-76
2024/04/09 05:34:23;;;;;;;9.60;3.90;;;;;;;26.48;35.88;100643.27;87583;270;23997;-76
2024/04/09 05:36:24;;;;;;;4.80;4.00;;;;;;;26.49;35.81;100644.58;87206;270;135656;-75
2024/04/09 05:38:25;;;;;;;8.10;4.80;;;;;;;26.54;36.37;100642.66;87517;279;23899;-75
2024/04/09 05:40:26;;;;;;;7.40;3.70;;;;;;;26.60;35.48;100641.38;87049;276;136367;-77
2024/04/09 05:42:26;;;;;;;4.70;3.20;;;;;;;26.61;35.71;100642.14;87319;280;25233;-75
2024/04/09 05:44:27;;;;;;;7.50;3.90;;;;;;;26.62;35.27;100636.45;87169;271;136558;-76
2024/04/09 05:46:28;;;;;;;6.70;4.30;;;;;;;26.49;35.21;100638.49;87273;271;22614;-78
2024/04/09 05:48:29;;;;;;;7.00;3.20;;;;;;;26.41;35.38;100640.83;87427;267;136162;-80
2024/04/09 05:50:29;;;;;;;6.30;3.20;;;;;;;26.50;35.98;100641.67;87561;266;25220;-76
2024/04/09 05:52:31;;;;;;;6.50;3.60;;;;;;;26.61;36.16;100644.96;87417;275;136478;-78
2024/04/09 05:54:32;;;;;;;5.20;3.20;;;;;;;26.83;35.41;100646.66;87622;270;22709;-75
2024/04/09 05:56:32;;;;;;;6.70;3.00;;;;;;;26.96;34.74;100647.90;87568;270;136239;-73
2024/04/09 05:58:33;;;;;;;5.10;3.00;;;;;;;26.98;34.53;100648.31;87626;271;23899;-75
2024/04/09 06:00:34;;;;;;;6.90;3.90;;;;;;;26.90;34.39;100648.73;87599;271;136078;-80
2024/04/09 06:02:34;;;;;;;6.00;3.00;;;;;;;26.78;34.50;100646.11;87707;271;22599;-77
2024/04/09 06:04:35;;;;;;;4.60;2.80;;;;;;;26.61;33.87;100646.45;87847;268;137091;-77
2024/04/09 06:06:36;;;;;;;5.20;2.60;;;;;;;26.34;34.64;100650.45;88741;268;22572;-77
2024/04/09 06:08:36;;;;;;;7.40;2.90;;;;;;;26.13;35.67;100654.44;88991;267;136480;-76
2024/04/09 06:10:37;;;;;;;7.10;2.90;;;;;;;26.11;35.52;100652.33;88904;269;25130;-77
2024/04/09 06:12:38;;;;;;;6.40;3.10;;;;;;;26.12;35.38;100653.63;88565;266;135829;-75
2024/04/09 06:14:39;;;;;;;5.90;3.10;;;;;;;26.10;35.30;100653.59;88009;269;23275;-76
2024/04/09 06:16:39;;;;;;;3.90;2.60;;;;;;;26.11;35.70;100655.55;87391;271;135694;-75
2024/04/09 06:18:40;;;;;;;6.70;3.40;;;;;;;26.17;35.84;100658.77;87699;266;25217;-81
2024/04/09 06:20:40;;;;;;;9.70;3.10;;;;;;;26.21;34.85;100659.02;87410;268;137849;-77
2024/04/09 06:22:41;;;;;;;11.00;4.00;;;;;;;26.15;35.18;100658.41;87585;279;22547;-79
2024/04/09 06:24:43;;;;;;;7.60;2.80;;;;;;;26.07;35.45;100660.77;87411;271;137717;-79
2024/04/09 06:26:43;;;;;;;6.60;3.40;;;;;;;26.05;35.75;100660.90;87123;269;690528;-79
2024/04/09 06:28:44;;;;;;;6.10;3.20;;;;;;;26.03;35.89;100660.36;87473;274;135925;-77
2024/04/09 06:30:45;;;;;;;9.20;3.10;;;;;;;26.04;35.57;100661.16;87627;265;25223;-79
2024/04/09 06:32:46;;;;;;;11.30;3.40;;;;;;;26.09;35.72;100664.41;87476;266;136918;-80
2024/04/09 06:34:46;;;;;;;10.80;3.50;;;;;;;26.13;35.29;100666.73;87575;274;22519;-76
2024/04/09 06:36:47;;;;;;;8.50;3.30;;;;;;;26.10;35.76;100661.23;87403;271;136200;-76
2024/04/09 06:38:48;;;;;;;8.00;3.20;;;;;;;26.09;35.25;100662.44;87554;267;25194;-76
2024/04/09 06:40:53;;;;;;;4.10;3.00;;;;;;;26.05;35.93;100660.73;87426;270;137379;-76
2024/04/09 06:42:54;;;;;;;9.90;3.90;;;;;;;26.09;35.36;100664.04;87422;272;24158;-78
2024/04/09 06:44:55;;;;;;;8.60;3.30;;;;;;;26.17;35.36;100664.95;87428;275;136579;-74
2024/04/09 06:46:55;;;;;;;6.40;2.70;;;;;;;26.28;35.30;100664.81;87263;271;22567;-73
2024/04/09 06:48:56;;;;;;;10.90;3.50;;;;;;;26.44;34.55;100664.67;87190;271;136224;-74
2024/04/09 06:50:57;;;;;;;11.90;3.40;;;;;;;26.53;34.43;100667.22;87288;274;25169;-72
2024/04/09 06:52:58;;;;;;;7.20;3.40;;;;;;;26.52;34.22;100665.10;87129;266;136310;-73
2024/04/09 06:54:59;;;;;;;5.50;2.90;;;;;;;26.48;34.33;100666.33;87279;269;22577;-75
2024/04/09 06:57:00;;;;;;;8.80;3.00;;;;;;;26.48;34.07;100662.61;87164;269;136506;-69
2024/04/09 06:59:01;;;;;;;6.90;2.40;;;;;;;26.30;34.23;100661.84;87284;278;22576;-70
2024/04/09 07:01:01;;;;;;;6.30;2.60;;;;;;;26.03;34.34;100661.61;87197;273;136509;-70
2024/04/09 07:03:04;;;;;;;12.50;2.30;;;;;;;25.61;34.36;100663.38;87275;277;22640;-69
2024/04/09 07:05:06;;;;;;;5.90;1.60;;;;;;;25.10;35.45;100661.59;87283;273;136918;-67
2024/04/09 07:07:08;;;;;;;5.40;2.00;;;;;;;24.75;36.31;100662.11;87213;269;22565;-66
2024/04/09 07:09:08;;;;;;;5.10;1.80;;;;;;;24.55;36.57;100667.52;87147;266;136146;-67
2024/04/09 07:11:09;;;;;;;8.70;1.50;;;;;;;24.40;37.24;100663.31;87183;273;25086;-65
2024/04/09 07:13:10;;;;;;;8.10;1.90;;;;;;;24.30;37.33;100663.26;87126;273;137235;-69
2024/04/09 07:15:11;;;;;;;6.20;2.50;;;;;;;24.21;37.71;100663.73;87265;266;22576;-66
2024/04/09 07:17:12;;;;;;;3.60;1.80;;;;;;;24.10;37.81;100670.27;87122;274;135814;-65
2024/04/09 07:19:14;;;;;;;6.10;1.20;;;;;;;23.91;37.82;100662.80;87285;269;25092;-67
2024/04/09 07:21:15;;;;;;;3.20;1.30;;;;;;;23.65;38.74;100666.61;87164;269;136339;-67
2024/04/09 07:23:16;;;;;;;5.90;1.80;;;;;;;23.46;39.19;100664.26;87208;273;22558;-67
2024/04/09 07:25:16;;;;;;;6.50;2.10;;;;;;;23.38;39.38;100663.46;87122;273;135815;-69
2024/04/09 07:27:17;;;;;;;6.50;1.60;;;;;;;23.35;39.54;100662.25;87219;278;22755;-70
2024/04/09 07:29:18;;;;;;;5.50;1.70;;;;;;;23.29;39.67;100659.02;87124;273;136465;-70
2024/04/09 07:31:19;;;;;;;5.50;1.80;;;;;;;23.21;39.97;100658.55;87255;269;22575;-67
2024/04/09 07:33:20;;;;;;;10.30;1.10;;;;;;;23.08;40.32;100656.86;87075;274;136018;-68
2024/04/09 07:35:20;;;;;;;4.40;1.40;;;;;;;23.01;40.62;100651.56;87198;269;25092;-67
2024/04/09 07:37:22;;;;;;;10.70;0.90;;;;;;;22.98;40.64;100651.94;87202;265;136184;-68
2024/04/09 07:39:22;;;;;;;4.30;1.20;;;;;;;22.94;40.89;100651.75;87224;270;22938;-65
2024/04/09 07:41:25;;;;;;;1.60;1.00;;;;;;;22.96;40.96;100653.38;87154;270;136530;-66
2024/04/09 07:43:27;;;;;;;2.30;1.20;;;;;;;23.00;41.20;100649.50;87230;269;24011;-67
2024/04/09 07:45:29;;;;;;;2.40;1.10;;;;;;;23.06;41.13;100648.97;87109;277;135906;-62
2024/04/09 07:47:30;;;;;;;4.20;1.30;;;;;;;23.14;40.77;100646.77;87231;270;22659;-66
2024/04/09 07:49:31;;;;;;;2.00;0.60;;;;;;;23.19;40.23;100646.95;87139;270;135928;-69
2024/04/09 07:51:32;;;;;;;3.50;1.00;;;;;;;23.21;40.21;100646.26;87193;270;22566;-64
2024/04/09 07:53:33;;;;;;;0.70;0.60;;;;;;;23.27;40.45;100642.65;87091;270;136426;-68
2024/04/09 07:55:35;;;;;;;1.00;0.80;;;;;;;23.37;39.85;100640.29;87100;280;22661;-68
2024/04/09 07:57:36;;;;;;;2.10;0.70;;;;;;;23.44;39.62;100640.26;87144;271;136192;-68
2024/04/09 07:59:37;;;;;;;2.40;0.90;;;;;;;23.42;39.31;100640.31;87147;279;22675;-67
2024/04/09 08:01:37;;;;;;;2.30;0.40;;;;;;;23.37;39.50;100634.95;87167;278;136384;-66
2024/04/09 08:03:38;;;;;;;3.90;0.50;;;;;;;23.36;39.64;100632.77;87319;278;22558;-72
2024/04/09 08:05:39;;;;;;;4.40;0.70;;;;;;;23.39;39.61;100631.22;87168;262;136468;-78
2024/04/09 08:07:40;;;;;;;1.10;0.40;;;;;;;23.41;39.08;100631.98;87508;278;22561;-76
2024/04/09 08:09:41;;;;;;;0.40;0.40;;;;;;;23.36;39.20;100630.27;87237;266;136128;-77
2024/04/09 08:11:42;;;;;;;4.10;0.30;;;;;;;23.30;39.69;100622.43;87220;276;22558;-73
2024/04/09 08:13:43;;;;;;;6.50;1.30;;;;;;;23.24;39.53;100623.00;87213;274;136201;-73
2024/04/09 08:15:43;;;;;;;1.20;0.30;;;;;;;23.19;40.00;100625.32;87241;275;22571;-73
2024/04/09 08:17:48;;;;;;;4.30;0.60;;;;;;;23.19;39.88;100619.22;87231;270;135961;-70
2024/04/09 08:19:48;;;;;;;2.70;0.40;;;;;;;23.19;39.18;100617.31;87398;274;24101;-74
2024/04/09 08:21:49;;;;;;;3.40;0.50;;;;;;;23.16;39.43;100616.39;87273;270;135761;-75
2024/04/09 08:23:50;;;;;;;0.50;0.20;;;;;;;23.15;39.46;100615.67;87117;280;22655;-72
2024/04/09 08:25:51;;;;;;;0.80;0.20;;;;;;;23.17;40.07;100611.17;87050;266;136214;-75
2024/04/09 08:27:52;;;;;;;1.70;0.30;;;;;;;23.23;39.63;100609.98;87140;278;22651;-73
2024/04/09 08:29:53;;;;;;;0.70;0.30;;;;;;;23.31;39.74;100608.39;87084;266;136288;-74
2024/04/09 08:31:54;;;;;;;1.10;0.30;;;;;;;23.40;38.75;100605.65;87445;273;23760;-70
2024/04/09 08:33:55;;;;;;;2.50;0.20;;;;;;;23.45;38.40;100605.73;87134;270;135760;-75
2024/04/09 08:35:56;;;;;;;0.80;0.20;;;;;;;23.43;38.28;100605.77;87342;270;25214;-74
2024/04/09 08:37:57;;;;;;;0.80;0.20;;;;;;;23.38;38.50;100603.80;87157;267;135942;-73
2024/04/09 08:39:59;;;;;;;0.90;0.30;;;;;;;23.34;38.25;100601.33;87265;267;22560;-72
2024/04/09 08:41:59;;;;;;;5.00;0.20;;;;;;;23.30;38.14;100593.92;87390;274;136061;-71
2024/04/09 08:44:03;;;;;;;0.20;0.20;;;;;;;23.27;38.15;100598.42;87199;268;22596;-73
2024/04/09 08:46:05;;;;;;;0.90;0.50;;;;;;;23.28;38.24;100596.58;87284;274;22572;-70
2024/04/09 08:48:09;;;;;;;0.50;0.10;;;;;;;23.32;38.08;100592.73;87265;274;137620;-73
2024/04/09 08:50:12;;;;;;;7.20;0.10;;;;;;;23.32;38.25;100595.56;87370;279;25693;-70
2024/04/09 08:52:16;;;;;;;0.70;0.20;;;;;;;23.32;38.29;100592.02;87054;279;136820;-72
2024/04/09 08:54:18;;;;;;;1.90;0.30;;;;;;;23.34;38.07;100591.00;87395;274;25351;-71
2024/04/09 08:56:19;;;;;;;0.70;0.20;;;;;;;23.37;38.20;100583.77;87161;270;137528;-72
2024/04/09 08:58:20;;;;;;;3.10;0.20;;;;;;;23.39;38.02;100584.60;87301;269;24142;-72
2024/04/09 09:00:21;;;;;;;1.40;0.20;;;;;;;23.41;37.94;100586.07;87164;269;136694;-72
2024/04/09 09:02:21;;;;;;;3.00;0.20;;;;;;;23.41;38.30;100589.71;87363;274;23997;-76
2024/04/09 09:04:22;;;;;;;0.30;0.20;;;;;;;23.43;38.21;100584.88;87427;277;136433;-72
2024/04/09 09:06:23;;;;;;;0.30;0.30;;;;;;;23.43;38.26;100586.56;87382;268;24001;-70
2024/04/09 09:08:24;;;;;;;0.40;0.10;;;;;;;23.43;38.40;100582.83;87306;276;137768;-70
2024/04/09 09:10:24;;;;;;;1.80;0.30;;;;;;;23.45;38.35;100581.51;87237;268;24059;-70
2024/04/09 09:12:25;;;;;;;1.00;0.20;;;;;;;23.48;38.17;100578.20;87175;270;135652;-70
2024/04/09 09:14:26;;;;;;;1.90;0.10;;;;;;;23.52;37.91;100575.05;87258;271;22550;-75
2024/04/09 09:16:26;;;;;;;0.50;0.10;;;;;;;23.59;37.69;100576.91;87145;263;136203;-72
2024/04/09 09:18:27;;;;;;;2.80;0.20;;;;;;;23.66;36.99;100576.38;87124;268;22541;-73
2024/04/09 09:20:28;;;;;;;1.20;0.10;;;;;;;23.68;37.23;100576.88;87136;268;137252;-72
2024/04/09 09:22:29;;;;;;;0.30;0.10;;;;;;;23.68;37.24;100573.88;87308;273;25243;-72
2024/04/09 09:24:30;;;;;;;0.50;0.20;;;;;;;23.66;37.30;100575.57;87218;278;136515;-72
2024/04/09 09:26:31;;;;;;;3.80;0.10;;;;;;;23.61;37.32;100569.57;87259;270;24179;-71